createdAt,value
2023-03-17T00:01:17.256Z,100910.50
2023-03-17T00:03:47.222Z,100918.28
2023-03-17T00:06:17.514Z,100917.63
2023-03-17T00:08:46.315Z,100912.31
2023-03-17T00:11:15.190Z,100909.19
2023-03-17T00:13:44.544Z,100916.34
2023-03-17T00:16:16.865Z,100920.00
2023-03-17T00:18:44.765Z,100920.44
2023-03-17T00:21:15.599Z,100913.22
2023-03-17T00:23:47.914Z,100913.69
2023-03-17T00:26:16.082Z,100923.78
2023-03-17T00:28:45.656Z,100914.78
2023-03-17T00:31:16.611Z,100920.84
2023-03-17T00:33:46.469Z,100930.63
2023-03-17T00:36:17.934Z,100922.66
2023-03-17T00:38:46.003Z,100923.78
2023-03-17T00:41:13.708Z,100913.16
2023-03-17T00:43:41.968Z,100909.66
2023-03-17T00:46:14.607Z,100907.66
2023-03-17T00:48:43.418Z,100897.13
2023-03-17T00:51:12.594Z,100895.75
2023-03-17T00:53:40.673Z,100896.03
2023-03-17T00:56:15.478Z,100884.84
2023-03-17T00:58:44.586Z,100884.78
2023-03-17T01:01:14.033Z,100882.28
2023-03-17T01:03:41.862Z,100886.22
2023-03-17T01:06:12.550Z,100886.03
2023-03-17T01:08:41.525Z,100887.22
2023-03-17T01:11:16.227Z,100879.09
2023-03-17T01:13:43.889Z,100882.59
2023-03-17T01:16:12.351Z,100889.19
2023-03-17T01:18:41.359Z,100884.72
2023-03-17T01:21:09.198Z,100879.28
2023-03-17T01:23:37.325Z,100877.47
2023-03-17T01:26:05.058Z,100886.50
2023-03-17T01:28:32.593Z,100897.75
2023-03-17T01:31:00.479Z,100886.88
2023-03-17T01:33:27.990Z,100877.72
2023-03-17T01:35:57.354Z,100879.78
2023-03-17T01:38:25.534Z,100881.06
2023-03-17T01:40:54.774Z,100876.13
2023-03-17T01:43:24.356Z,100873.53
2023-03-17T01:46:25.015Z,100866.56
2023-03-17T01:49:04.374Z,100870.56
2023-03-17T01:51:38.601Z,100854.38
2023-03-17T01:54:09.315Z,100850.06
2023-03-17T01:56:38.885Z,100854.56
2023-03-17T01:59:09.490Z,100854.72
2023-03-17T02:01:42.079Z,100848.16
2023-03-17T02:04:11.574Z,100841.13
2023-03-17T02:06:56.800Z,100841.34
2023-03-17T02:09:25.290Z,100842.88
2023-03-17T02:11:54.368Z,100842.88
2023-03-17T02:14:22.135Z,100831.00
2023-03-17T02:16:49.813Z,100809.44
2023-03-17T02:19:17.405Z,100820.06
2023-03-17T02:21:48.138Z,100817.56
2023-03-17T02:24:26.347Z,100805.47
2023-03-17T02:26:56.567Z,100801.53
2023-03-17T02:29:24.763Z,100806.47
2023-03-17T02:31:53.378Z,100809.47
2023-03-17T02:34:22.516Z,100818.25
2023-03-17T02:36:51.374Z,100825.34
2023-03-17T02:39:19.356Z,100823.69
2023-03-17T02:41:47.761Z,100840.59
2023-03-17T02:44:15.842Z,100837.94
2023-03-17T02:46:43.429Z,100818.03
2023-03-17T02:49:11.915Z,100818.75
2023-03-17T02:51:39.632Z,100816.72
2023-03-17T02:54:08.898Z,100816.72
2023-03-17T02:56:36.635Z,100818.75
2023-03-17T02:59:04.252Z,100817.44
2023-03-17T03:01:32.114Z,100810.94
2023-03-17T03:03:59.719Z,100800.34
2023-03-17T03:06:27.387Z,100811.50
2023-03-17T03:08:55.017Z,100811.41
2023-03-17T03:11:24.177Z,100804.50
2023-03-17T03:13:51.833Z,100812.44
2023-03-17T03:16:19.426Z,100817.19
2023-03-17T03:18:47.170Z,100812.88
2023-03-17T03:21:15.361Z,100812.59
2023-03-17T03:23:43.229Z,100814.78
2023-03-17T03:26:10.886Z,100821.44
2023-03-17T03:28:39.916Z,100815.97
2023-03-17T03:31:07.806Z,100817.44
2023-03-17T03:33:36.384Z,100820.19
2023-03-17T03:36:04.144Z,100813.09
2023-03-17T03:38:31.722Z,100810.25
2023-03-17T03:40:59.244Z,100806.06
2023-03-17T03:43:27.002Z,100801.28
2023-03-17T03:45:55.893Z,100804.13
2023-03-17T03:48:23.774Z,100801.16
2023-03-17T03:50:51.315Z,100777.63
2023-03-17T03:53:18.910Z,100767.38
2023-03-17T03:55:46.614Z,100755.09
2023-03-17T03:58:14.152Z,100736.28
2023-03-17T04:00:41.743Z,100730.50
2023-03-17T04:03:10.773Z,100748.41
2023-03-17T04:05:38.289Z,100745.94
2023-03-17T04:08:06.610Z,100754.16
2023-03-17T04:10:34.257Z,100775.44
2023-03-17T04:13:01.815Z,100779.28
2023-03-17T04:15:29.698Z,100775.16
2023-03-17T04:17:57.392Z,100764.19
2023-03-17T04:20:26.617Z,100749.28
2023-03-17T04:22:54.269Z,100750.63
2023-03-17T04:25:21.817Z,100737.56
2023-03-17T04:27:49.541Z,100735.81
2023-03-17T04:30:17.690Z,100744.69
2023-03-17T04:32:46.341Z,100739.75
2023-03-17T04:35:16.663Z,100743.41
2023-03-17T04:37:46.476Z,100748.66
2023-03-17T04:40:14.850Z,100752.63
2023-03-17T04:42:42.509Z,100763.59
2023-03-17T04:45:12.511Z,100757.31
2023-03-17T04:47:40.486Z,100753.13
2023-03-17T04:50:09.012Z,100757.09
2023-03-17T04:52:37.384Z,100745.59
2023-03-17T04:55:09.166Z,100747.69
2023-03-17T04:57:36.997Z,100746.50
2023-03-17T05:00:06.227Z,100738.41
2023-03-17T05:02:33.806Z,100731.78
2023-03-17T05:05:01.989Z,100735.81
2023-03-17T05:07:29.579Z,100726.38
2023-03-17T05:09:57.815Z,100721.25
2023-03-17T05:12:26.913Z,100722.38
2023-03-17T05:14:54.452Z,100729.84
2023-03-17T05:17:22.014Z,100723.00
2023-03-17T05:19:50.258Z,100723.84
2023-03-17T05:22:17.828Z,100720.47
2023-03-17T05:24:45.480Z,100722.22
2023-03-17T05:27:12.992Z,100718.72
2023-03-17T05:29:42.275Z,100716.94
2023-03-17T05:32:09.961Z,100722.59
2023-03-17T05:34:37.506Z,100709.34
2023-03-17T05:37:05.061Z,100708.09
2023-03-17T05:39:32.774Z,100703.13
2023-03-17T05:42:00.485Z,100706.63
2023-03-17T05:44:28.105Z,100697.66
2023-03-17T05:46:59.542Z,100697.16
2023-03-17T05:49:27.555Z,100701.00
2023-03-17T05:51:55.253Z,100699.19
2023-03-17T05:54:23.989Z,100693.19
2023-03-17T05:56:51.559Z,100689.53
2023-03-17T05:59:19.125Z,100687.88
2023-03-17T06:01:46.933Z,100678.88
2023-03-17T06:04:15.901Z,100682.47
2023-03-17T06:06:43.674Z,100687.81
2023-03-17T06:09:11.216Z,100688.84
2023-03-17T06:11:38.876Z,100696.06
2023-03-17T06:14:07.210Z,100694.34
2023-03-17T06:16:34.754Z,100707.31
2023-03-17T06:19:02.442Z,100707.94
2023-03-17T06:21:31.394Z,100707.88
2023-03-17T06:23:58.948Z,100711.91
2023-03-17T06:26:27.109Z,100708.06
2023-03-17T06:28:54.690Z,100694.63
2023-03-17T06:31:23.844Z,100698.44
2023-03-17T06:33:52.068Z,100706.16
2023-03-17T06:36:19.660Z,100706.09
2023-03-17T06:38:48.598Z,100715.34
2023-03-17T06:41:16.209Z,100701.72
2023-03-17T06:43:43.706Z,100704.75
2023-03-17T06:46:11.363Z,100698.16
2023-03-17T06:48:39.193Z,100705.22
2023-03-17T06:51:07.139Z,100705.22
2023-03-17T06:53:34.652Z,100703.78
2023-03-17T06:56:04.934Z,100713.81
2023-03-17T06:58:33.073Z,100709.88
2023-03-17T07:01:00.653Z,100709.72
2023-03-17T07:03:28.577Z,100711.28
2023-03-17T07:05:56.132Z,100715.97
2023-03-17T07:08:23.678Z,100722.00
2023-03-17T07:10:51.401Z,100713.75
2023-03-17T07:13:20.839Z,100717.00
2023-03-17T07:15:49.751Z,100704.16
2023-03-17T07:18:18.777Z,100700.25
2023-03-17T07:20:46.788Z,100696.47
2023-03-17T07:23:16.361Z,100699.41
2023-03-17T07:25:45.512Z,100696.75
2023-03-17T07:28:13.022Z,100701.78
2023-03-17T07:30:46.467Z,100707.00
2023-03-17T07:33:14.541Z,100709.03
2023-03-17T07:35:42.503Z,100713.44
2023-03-17T07:38:10.170Z,100707.25
2023-03-17T07:40:38.681Z,100722.44
2023-03-17T07:43:06.530Z,100713.38
2023-03-17T07:45:35.882Z,100717.81
2023-03-17T07:48:05.867Z,100706.69
2023-03-17T07:50:33.482Z,100704.41
2023-03-17T07:53:01.508Z,100705.31
2023-03-17T07:55:29.238Z,100687.19
2023-03-17T07:57:57.425Z,100697.34
2023-03-17T08:00:27.006Z,100690.16
2023-03-17T08:03:09.005Z,100701.75
2023-03-17T08:05:39.574Z,100690.97
2023-03-17T08:08:07.426Z,100688.03
2023-03-17T08:10:35.621Z,100685.94
2023-03-17T08:13:03.966Z,100680.75
2023-03-17T08:15:31.721Z,100680.66
2023-03-17T08:17:59.531Z,100663.28
2023-03-17T08:20:27.157Z,100667.38
2023-03-17T08:22:57.202Z,100659.59
2023-03-17T08:25:24.946Z,100656.34
2023-03-17T08:27:52.724Z,100666.56
2023-03-17T08:30:21.695Z,100674.09
2023-03-17T08:32:49.304Z,100678.66
2023-03-17T08:35:18.483Z,100676.84
2023-03-17T08:37:47.471Z,100678.75
2023-03-17T08:40:19.641Z,100690.16
2023-03-17T08:42:49.027Z,100672.38
2023-03-17T08:45:19.297Z,100667.00
2023-03-17T08:47:47.662Z,100667.91
2023-03-17T08:50:20.013Z,100662.22
2023-03-17T08:52:48.612Z,100668.19
2023-03-17T08:55:17.617Z,100667.56
2023-03-17T08:57:46.135Z,100668.84
2023-03-17T09:00:16.102Z,100665.56
2023-03-17T09:02:44.989Z,100658.53
2023-03-17T09:05:14.783Z,100660.19
2023-03-17T09:07:43.514Z,100655.69
2023-03-17T09:10:13.565Z,100643.75
2023-03-17T09:12:42.755Z,100647.88
2023-03-17T09:15:12.321Z,100643.16
2023-03-17T09:17:39.902Z,100639.03
2023-03-17T09:20:08.661Z,100635.06
2023-03-17T09:22:36.193Z,100638.88
2023-03-17T09:25:04.181Z,100634.72
2023-03-17T09:27:31.726Z,100623.63
2023-03-17T09:30:00.787Z,100609.00
2023-03-17T09:32:28.357Z,100619.03
2023-03-17T09:34:56.179Z,100615.78
2023-03-17T09:37:23.890Z,100611.88
2023-03-17T09:39:51.848Z,100617.13
2023-03-17T09:42:34.689Z,100615.81
2023-03-17T09:45:13.933Z,100616.41
2023-03-17T09:47:58.322Z,100621.91
2023-03-17T09:50:30.231Z,100612.41
2023-03-17T09:52:59.055Z,100615.50
2023-03-17T09:55:29.964Z,100604.97
2023-03-17T09:57:58.712Z,100605.16
2023-03-17T10:00:31.071Z,100605.47
2023-03-17T10:02:59.654Z,100606.91
2023-03-17T10:05:30.238Z,100599.09
2023-03-17T10:08:18.947Z,100599.91
2023-03-17T10:10:58.686Z,100603.53
2023-03-17T10:13:38.123Z,100601.06
2023-03-17T10:16:10.413Z,100602.84
2023-03-17T10:18:44.806Z,100599.88
2023-03-17T10:21:16.882Z,100601.50
2023-03-17T10:23:46.291Z,100607.22
2023-03-17T10:26:25.253Z,100609.03
2023-03-17T10:28:54.284Z,100617.03
2023-03-17T10:31:32.937Z,100618.59
2023-03-17T10:34:14.328Z,100613.91
2023-03-17T10:36:44.907Z,100622.38
2023-03-17T10:39:15.134Z,100613.19
2023-03-17T10:41:55.251Z,100615.78
2023-03-17T10:44:30.658Z,100612.31
2023-03-17T10:46:59.611Z,100608.16
2023-03-17T10:49:27.197Z,100597.84
2023-03-17T10:51:55.494Z,100589.84
2023-03-17T10:54:26.410Z,100590.84
2023-03-17T10:57:02.093Z,100590.03
2023-03-17T11:02:20.159Z,100592.84
2023-03-17T11:04:48.355Z,100585.41
2023-03-17T11:07:18.810Z,100589.50
2023-03-17T11:09:50.639Z,100586.75
2023-03-17T11:12:26.321Z,100589.63
2023-03-17T11:15:00.320Z,100586.75
2023-03-17T11:17:43.794Z,100583.31
2023-03-17T11:20:32.294Z,100582.00
2023-03-17T11:23:05.786Z,100582.19
2023-03-17T11:25:36.961Z,100571.84
2023-03-17T11:28:17.757Z,100573.28
2023-03-17T11:30:50.106Z,100556.88
2023-03-17T11:33:33.554Z,100570.03
2023-03-17T11:36:07.172Z,100555.41
2023-03-17T11:38:38.783Z,100554.19
2023-03-17T11:41:35.642Z,100550.50
2023-03-17T11:44:28.889Z,100553.03
2023-03-17T11:47:07.349Z,100550.41
2023-03-17T11:49:38.563Z,100546.09
2023-03-17T11:52:21.878Z,100551.66
2023-03-17T11:54:59.029Z,100558.13
2023-03-17T11:57:32.196Z,100562.25
2023-03-17T12:00:03.254Z,100553.59
2023-03-17T12:02:44.428Z,100551.22
2023-03-17T12:05:16.812Z,100549.94
2023-03-17T12:07:48.918Z,100546.00
2023-03-17T12:10:23.463Z,100539.97
2023-03-17T12:12:56.321Z,100547.84
2023-03-17T12:15:32.357Z,100539.34
2023-03-17T12:18:06.789Z,100541.00
2023-03-17T12:20:46.295Z,100532.38
2023-03-17T12:23:22.349Z,100522.88
2023-03-17T12:25:57.557Z,100517.69
2023-03-17T12:28:28.381Z,100519.53
2023-03-17T12:31:02.205Z,100511.47
2023-03-17T12:33:35.463Z,100502.47
2023-03-17T12:36:05.286Z,100509.56
2023-03-17T12:38:39.010Z,100503.84
2023-03-17T12:41:29.622Z,100493.44
2023-03-17T12:44:05.791Z,100506.41
2023-03-17T12:46:50.181Z,100495.56
2023-03-17T12:49:34.790Z,100500.22
2023-03-17T12:52:14.334Z,100495.31
2023-03-17T12:54:47.797Z,100481.09
2023-03-17T12:57:19.116Z,100466.53
2023-03-17T12:59:49.708Z,100471.94
2023-03-17T13:02:25.290Z,100483.44
2023-03-17T13:04:57.897Z,100481.19
2023-03-17T13:07:32.453Z,100492.59
2023-03-17T13:10:22.009Z,100501.91
2023-03-17T13:13:10.997Z,100509.44
2023-03-17T13:15:59.769Z,100510.19
2023-03-17T13:18:51.306Z,100524.59
2023-03-17T13:21:26.317Z,100524.97
2023-03-17T13:24:01.270Z,100536.22
2023-03-17T13:27:01.794Z,100529.00
2023-03-17T13:29:53.579Z,100516.84
2023-03-17T13:32:38.173Z,100518.25
2023-03-17T13:35:40.108Z,100503.69
2023-03-17T13:38:32.525Z,100514.16
2023-03-17T13:41:19.967Z,100516.88
2023-03-17T13:44:06.896Z,100509.91
2023-03-17T13:46:42.622Z,100502.31
2023-03-17T13:49:24.401Z,100504.50
2023-03-17T13:51:59.936Z,100495.69
2023-03-17T13:54:33.635Z,100496.84
2023-03-17T13:57:24.677Z,100492.50
2023-03-17T14:00:00.699Z,100491.69
2023-03-17T14:02:32.565Z,100479.91
2023-03-17T14:05:03.268Z,100494.63
2023-03-17T14:07:42.276Z,100487.81
2023-03-17T14:10:17.985Z,100486.56
2023-03-17T14:12:53.089Z,100492.78
2023-03-17T14:15:26.011Z,100482.63
2023-03-17T14:17:58.412Z,100490.50
2023-03-17T14:20:28.279Z,100488.56
2023-03-17T14:22:58.143Z,100484.50
2023-03-17T14:25:27.609Z,100479.88
2023-03-17T14:27:58.844Z,100475.00
2023-03-17T14:30:30.457Z,100481.78
2023-03-17T14:33:04.505Z,100484.56
2023-03-17T14:35:33.793Z,100476.25
2023-03-17T14:38:02.669Z,100476.47
2023-03-17T14:40:36.669Z,100477.06
2023-03-17T14:43:06.134Z,100472.63
2023-03-17T14:45:48.603Z,100476.88
2023-03-17T14:48:18.685Z,100474.44
2023-03-17T14:50:52.093Z,100474.72
2023-03-17T14:53:22.350Z,100471.28
2023-03-17T14:55:49.904Z,100470.97
2023-03-17T14:58:25.231Z,100460.63
2023-03-17T15:00:58.119Z,100461.03
2023-03-17T15:03:31.511Z,100466.44
2023-03-17T15:06:08.161Z,100457.97
2023-03-17T15:08:47.078Z,100465.91
2023-03-17T15:11:21.373Z,100466.41
2023-03-17T15:13:51.636Z,100468.97
2023-03-17T15:16:23.769Z,100477.69
2023-03-17T15:18:58.289Z,100487.28
2023-03-17T15:21:33.546Z,100477.75
2023-03-17T15:24:05.721Z,100479.13
2023-03-17T15:26:33.433Z,100484.72
2023-03-17T15:29:02.383Z,100495.16
2023-03-17T15:31:30.646Z,100487.09
2023-03-17T15:33:58.967Z,100488.63
2023-03-17T15:36:32.616Z,100480.53
2023-03-17T15:39:00.517Z,100481.31
2023-03-17T15:41:28.121Z,100480.44
2023-03-17T15:43:56.708Z,100484.41
2023-03-17T15:46:30.713Z,100475.72
2023-03-17T15:48:58.767Z,100472.16
2023-03-17T15:51:26.378Z,100474.78
2023-03-17T15:53:53.933Z,100469.81
2023-03-17T15:56:22.353Z,100463.28
2023-03-17T15:58:52.131Z,100454.00
2023-03-17T16:01:20.894Z,100450.19
2023-03-17T16:03:50.465Z,100446.66
2023-03-17T16:06:19.309Z,100441.72
2023-03-17T16:08:46.886Z,100447.91
2023-03-17T16:11:19.211Z,100444.13
2023-03-17T16:13:48.063Z,100455.94
2023-03-17T16:16:22.574Z,100455.44
2023-03-17T16:18:52.505Z,100442.44
2023-03-17T16:21:20.808Z,100454.25
2023-03-17T16:23:49.739Z,100456.41
2023-03-17T16:26:17.391Z,100459.81
2023-03-17T16:28:46.253Z,100461.16
2023-03-17T16:31:32.020Z,100474.00
2023-03-17T16:34:01.415Z,100480.13
2023-03-17T16:36:29.189Z,100490.56
2023-03-17T16:38:57.053Z,100489.19
2023-03-17T16:41:27.190Z,100496.94
2023-03-17T16:43:59.802Z,100494.19
2023-03-17T16:46:28.942Z,100489.31
2023-03-17T16:48:56.580Z,100494.13
2023-03-17T16:51:25.662Z,100494.34
2023-03-17T16:53:53.349Z,100504.81
2023-03-17T16:56:23.774Z,100511.00
2023-03-17T16:58:51.689Z,100522.03
2023-03-17T17:01:22.602Z,100528.56
2023-03-17T17:03:50.500Z,100530.91
2023-03-17T17:06:20.561Z,100530.50
2023-03-17T17:08:50.802Z,100539.91
2023-03-17T17:11:19.995Z,100542.25
2023-03-17T17:13:49.024Z,100543.50
2023-03-17T17:16:21.254Z,100540.94
2023-03-17T17:18:48.962Z,100534.44
2023-03-17T17:21:16.644Z,100531.03
2023-03-17T17:23:44.130Z,100531.19
2023-03-17T17:26:13.017Z,100528.50
2023-03-17T17:28:40.564Z,100521.47
2023-03-17T17:31:09.188Z,100506.41
2023-03-17T17:33:38.265Z,100490.75
2023-03-17T17:36:08.918Z,100484.72
2023-03-17T17:38:36.452Z,100457.97
2023-03-17T17:41:05.683Z,100425.88
2023-03-17T17:43:34.654Z,100430.94
2023-03-17T17:46:02.263Z,100463.13
2023-03-17T17:48:30.335Z,100485.16
2023-03-17T17:50:58.719Z,100501.84
2023-03-17T17:53:26.285Z,100509.41
2023-03-17T17:55:53.847Z,100528.56
2023-03-17T17:58:23.435Z,100534.44
2023-03-17T18:00:54.955Z,100523.09
2023-03-17T18:03:25.093Z,100520.66
2023-03-17T18:05:53.233Z,100530.09
2023-03-17T18:08:21.038Z,100536.78
2023-03-17T18:10:51.444Z,100537.47
2023-03-17T18:13:19.455Z,100546.25
2023-03-17T18:15:47.043Z,100540.53
2023-03-17T18:18:15.933Z,100532.97
2023-03-17T18:20:43.527Z,100544.44
2023-03-17T18:23:11.225Z,100535.19
2023-03-17T18:25:38.728Z,100545.84
2023-03-17T18:28:06.377Z,100540.34
2023-03-17T18:30:34.996Z,100540.03
2023-03-17T18:33:07.385Z,100542.59
2023-03-17T18:35:36.616Z,100550.53
2023-03-17T18:38:04.466Z,100543.19
2023-03-17T18:40:32.263Z,100549.50
2023-03-17T18:42:59.803Z,100542.16
2023-03-17T18:45:27.586Z,100545.25
2023-03-17T18:47:55.345Z,100538.28
2023-03-17T18:50:23.052Z,100532.56
2023-03-17T18:52:51.978Z,100535.47
2023-03-17T18:55:19.924Z,100540.47
2023-03-17T18:57:47.514Z,100539.31
2023-03-17T19:00:18.485Z,100535.47
2023-03-17T19:02:46.872Z,100535.34
2023-03-17T19:05:15.236Z,100536.84
2023-03-17T19:07:43.226Z,100531.59
2023-03-17T19:10:13.849Z,100538.25
2023-03-17T19:12:42.290Z,100533.94
2023-03-17T19:15:12.352Z,100527.97
2023-03-17T19:17:40.204Z,100525.75
2023-03-17T19:20:09.932Z,100517.38
2023-03-17T19:22:37.613Z,100522.38
2023-03-17T19:25:06.229Z,100513.75
2023-03-17T19:27:35.282Z,100508.25
2023-03-17T19:30:02.833Z,100510.59
2023-03-17T19:32:30.398Z,100502.19
2023-03-17T19:34:57.954Z,100502.88
2023-03-17T19:37:25.933Z,100495.53
2023-03-17T19:39:53.518Z,100484.81
2023-03-17T19:42:21.081Z,100480.50
2023-03-17T19:44:49.962Z,100478.28
2023-03-17T19:47:17.549Z,100472.91
2023-03-17T19:49:45.850Z,100468.00
2023-03-17T19:52:13.493Z,100482.13
2023-03-17T19:54:44.541Z,100477.88
2023-03-17T19:57:13.098Z,100485.22
2023-03-17T19:59:40.786Z,100489.41
2023-03-17T20:02:14.006Z,100488.00
2023-03-17T20:04:42.844Z,100484.97
2023-03-17T20:07:11.262Z,100490.78
2023-03-17T20:09:39.230Z,100489.59
2023-03-17T20:12:07.089Z,100482.44
2023-03-17T20:14:34.733Z,100487.59
2023-03-17T20:17:02.321Z,100489.34
2023-03-17T20:19:31.567Z,100483.16
2023-03-17T20:21:59.119Z,100483.97
2023-03-17T20:24:28.551Z,100473.72
2023-03-17T20:26:57.872Z,100471.50
2023-03-17T20:29:25.878Z,100473.59
2023-03-17T20:31:53.814Z,100466.34
2023-03-17T20:34:21.528Z,100475.03
2023-03-17T20:36:51.802Z,100482.94
2023-03-17T20:39:20.589Z,100475.94
2023-03-17T20:41:48.925Z,100477.22
2023-03-17T20:44:17.617Z,100485.91
2023-03-17T20:46:45.703Z,100487.78
2023-03-17T20:49:13.679Z,100480.81
2023-03-17T20:51:41.379Z,100475.66
2023-03-17T20:54:11.023Z,100480.44
2023-03-17T20:56:39.576Z,100481.47
2023-03-17T20:59:09.516Z,100473.28
2023-03-17T21:01:38.999Z,100472.94
2023-03-17T21:04:08.919Z,100473.28
2023-03-17T21:06:36.649Z,100461.75
2023-03-17T21:09:04.799Z,100459.91
2023-03-17T21:11:33.666Z,100459.09
2023-03-17T21:14:03.275Z,100464.69
2023-03-17T21:16:31.301Z,100462.00
2023-03-17T21:18:58.958Z,100471.50
2023-03-17T21:21:27.213Z,100468.25
2023-03-17T21:23:54.926Z,100467.66
2023-03-17T21:26:22.908Z,100469.75
2023-03-17T21:28:52.491Z,100472.22
2023-03-17T21:31:20.219Z,100468.25
2023-03-17T21:33:50.300Z,100458.56
2023-03-17T21:36:18.449Z,100449.50
2023-03-17T21:38:46.009Z,100458.56
2023-03-17T21:41:30.232Z,100454.50
2023-03-17T21:43:59.084Z,100471.09
2023-03-17T21:46:26.896Z,100467.97
2023-03-17T21:48:55.858Z,100450.03
2023-03-17T21:51:24.269Z,100450.88
2023-03-17T21:53:52.751Z,100449.66
2023-03-17T21:56:20.758Z,100455.47
2023-03-17T21:58:48.916Z,100451.97
2023-03-17T22:01:18.951Z,100452.59
2023-03-17T22:03:46.569Z,100451.97
2023-03-17T22:06:15.542Z,100456.09
2023-03-17T22:08:43.964Z,100457.94
2023-03-17T22:11:14.089Z,100459.78
2023-03-17T22:13:41.937Z,100457.69
2023-03-17T22:16:10.130Z,100460.16
2023-03-17T22:18:39.440Z,100458.75
2023-03-17T22:21:08.076Z,100456.66
2023-03-17T22:23:40.729Z,100455.41
2023-03-17T22:26:09.605Z,100466.09
2023-03-17T22:28:37.781Z,100459.94
2023-03-17T22:31:11.932Z,100462.41
2023-03-17T22:33:41.470Z,100456.44
2023-03-17T22:36:09.740Z,100462.59
2023-03-17T22:38:37.615Z,100456.66
2023-03-17T22:41:07.708Z,100463.66
2023-03-17T22:43:35.725Z,100463.44
2023-03-17T22:46:03.632Z,100457.03
2023-03-17T22:48:32.482Z,100456.66
2023-03-17T22:51:03.055Z,100460.38
2023-03-17T22:53:31.420Z,100455.03
2023-03-17T22:55:59.138Z,100456.09
2023-03-17T22:58:27.329Z,100448.94
2023-03-17T23:00:56.187Z,100446.28
2023-03-17T23:03:24.873Z,100446.28
2023-03-17T23:05:54.361Z,100450.19
2023-03-17T23:08:23.448Z,100454.75
2023-03-17T23:10:52.039Z,100449.84
2023-03-17T23:13:20.927Z,100452.97
2023-03-17T23:15:49.055Z,100456.09
2023-03-17T23:18:16.825Z,100464.31
2023-03-17T23:20:44.504Z,100472.78
2023-03-17T23:23:12.630Z,100468.50
2023-03-17T23:25:41.872Z,100466.03
2023-03-17T23:28:10.043Z,100473.47
2023-03-17T23:30:38.485Z,100463.81
2023-03-17T23:33:07.510Z,100458.44
2023-03-17T23:35:35.654Z,100456.22
2023-03-17T23:38:03.970Z,100455.78
2023-03-17T23:40:32.500Z,100457.41
2023-03-17T23:43:01.840Z,100455.78
2023-03-17T23:45:29.426Z,100454.38
2023-03-17T23:47:57.407Z,100455.41
2023-03-17T23:50:25.036Z,100457.88
2023-03-17T23:52:53.936Z,100448.63
2023-03-17T23:55:21.739Z,100456.22
2023-03-17T23:57:50.227Z,100445.53
